Time;durP1;ratioP1;P1;durP2;ratioP2;P2;SDS_P1;SDS_P2;PMS_P1;PMS_P2;Temp;Humidity;BMP_temperature;BMP_pressure;BME280_temperature;BME280_humidity;BME280_pressure;Samples;Min_cycle;Max_cycle;Signal;HPM_P1;HPM_P2
2021/07/11 00:00:05;;;;;;;;;3.75;3.75;;;;;20.07;55.40;101220.81;5100924;27;45237;-61
2021/07/11 00:02:33;;;;;;;;;4.00;4.00;;;;;20.06;55.23;101229.78;5082482;27;46328;-60
2021/07/11 00:04:59;;;;;;;;;4.75;4.50;;;;;20.04;55.92;101231.66;5099517;27;47207;-61
2021/07/11 00:07:24;;;;;;;;;6.00;6.00;;;;;20.02;55.44;101222.84;5082019;27;45282;-61
2021/07/11 00:09:49;;;;;;;;;13.25;10.00;;;;;20.03;55.48;101229.06;5100729;27;45232;-61
2021/07/11 00:12:15;;;;;;;;;4.00;4.00;;;;;20.04;55.37;101231.66;5100530;27;45220;-61
2021/07/11 00:14:40;;;;;;;;;2.25;2.25;;;;;20.04;55.43;101217.47;5100576;27;46282;-60
2021/07/11 00:17:05;;;;;;;;;5.50;5.00;;;;;20.04;55.28;101228.97;5100528;27;45445;-61
2021/07/11 00:19:31;;;;;;;;;3.75;3.75;;;;;20.01;55.80;101225.59;5079045;28;45459;-60
2021/07/11 00:21:56;;;;;;;;;4.00;4.00;;;;;20.03;55.56;101224.56;5096847;27;45290;-60
2021/07/11 00:24:22;;;;;;;;;3.00;3.00;;;;;20.03;55.66;101213.06;5078581;28;48014;-60
2021/07/11 00:26:48;;;;;;;;;4.00;4.00;;;;;20.02;56.14;101211.31;5096634;27;45580;-60
2021/07/11 00:29:13;;;;;;;;;5.00;4.00;;;;;20.00;55.87;101210.50;5100662;27;45298;-60
2021/07/11 00:31:38;;;;;;;;;4.25;3.75;;;;;19.99;56.18;101215.00;5100241;27;45319;-60
2021/07/11 00:34:04;;;;;;;;;6.25;4.25;;;;;19.96;56.40;101210.66;5100465;27;46448;-60
2021/07/11 00:36:29;;;;;;;;;4.00;3.75;;;;;19.94;55.99;101209.88;5100268;27;45330;-60
2021/07/11 00:38:54;;;;;;;;;3.00;3.00;;;;;19.96;55.97;101212.44;5100292;27;45462;-60
2021/07/11 00:41:20;;;;;;;;;4.00;4.00;;;;;19.95;55.97;101218.75;5100261;27;45419;-61
2021/07/11 00:43:45;;;;;;;;;2.00;2.00;;;;;19.94;56.24;101209.88;5100176;27;46122;-61
2021/07/11 00:46:10;;;;;;;;;4.00;4.00;;;;;19.93;56.25;101212.59;5081627;27;45335;-61
2021/07/11 00:48:36;;;;;;;;;5.25;4.25;;;;;19.91;56.21;101206.47;5100464;27;45376;-61
2021/07/11 00:51:01;;;;;;;;;5.00;3.50;;;;;19.93;56.17;101209.94;5100180;27;45433;-60
2021/07/11 00:53:27;;;;;;;;;6.75;5.25;;;;;19.91;56.24;101201.13;5099913;27;46029;-61
2021/07/11 00:55:52;;;;;;;;;6.25;4.75;;;;;19.93;56.58;101201.94;5098713;27;45412;-61
2021/07/11 00:58:18;;;;;;;;;1.50;1.25;;;;;19.92;56.51;101190.41;5100213;27;45445;-61
2021/07/11 01:00:48;;;;;;;;;1.25;1.25;;;;;19.91;56.13;101194.03;5099907;27;45412;-60
2021/07/11 01:03:30;;;;;;;;;1.75;1.75;;;;;19.87;56.58;101178.22;5078481;28;47072;-60
2021/07/11 01:05:56;;;;;;;;;4.00;3.00;;;;;19.87;56.25;101186.22;5097672;27;45300;-59
2021/07/11 01:08:40;;;;;;;;;2.00;1.75;;;;;19.85;56.64;101182.75;5099862;27;45291;-58
2021/07/11 01:11:09;;;;;;;;;3.25;2.00;;;;;19.83;56.22;101188.16;5099927;27;45211;-59
2021/07/11 01:13:36;;;;;;;;;2.00;2.00;;;;;19.83;55.98;101187.31;5099560;27;45351;-59
2021/07/11 01:16:07;;;;;;;;;1.00;1.00;;;;;19.83;56.56;101180.16;5101993;27;45524;-59
2021/07/11 01:18:37;;;;;;;;;0.00;0.00;;;;;19.83;55.92;101179.31;5103335;27;45221;-61
2021/07/11 01:21:06;;;;;;;;;1.75;1.75;;;;;19.85;56.40;101172.06;5103154;27;45378;-61
2021/07/11 01:24:07;;;;;;;;;3.25;2.00;;;;;19.85;56.02;101175.63;5102862;27;45259;-61
2021/07/11 01:26:34;;;;;;;;;2.50;1.75;;;;;19.85;56.34;101174.75;5103179;27;45341;-61
2021/07/11 01:29:01;;;;;;;;;1.75;1.25;;;;;19.85;56.46;101172.97;5085017;27;45313;-61
2021/07/11 01:31:27;;;;;;;;;2.00;2.00;;;;;19.82;56.37;101167.72;5103049;27;45254;-61
2021/07/11 01:33:54;;;;;;;;;1.75;1.75;;;;;19.80;56.31;101165.13;5103049;27;47157;-61
2021/07/11 01:36:21;;;;;;;;;2.50;2.00;;;;;19.77;56.62;101162.63;5103043;27;45398;-59
2021/07/11 01:38:49;;;;;;;;;3.50;2.00;;;;;19.75;56.28;101163.63;5081205;28;45448;-59
2021/07/11 01:41:17;;;;;;;;;1.25;1.00;;;;;19.73;56.33;101158.34;5097966;27;45217;-58
2021/07/11 01:43:45;;;;;;;;;2.00;2.00;;;;;19.72;56.06;101156.66;5102701;27;46160;-59
2021/07/11 01:46:11;;;;;;;;;2.00;2.00;;;;;19.70;56.11;101150.50;5102555;27;45319;-59
2021/07/11 01:48:38;;;;;;;;;1.50;1.50;;;;;19.72;56.51;101156.66;5103001;27;45349;-59
2021/07/11 01:51:04;;;;;;;;;3.00;3.00;;;;;19.72;56.25;101150.44;5102762;27;45420;-61
2021/07/11 01:53:34;;;;;;;;;1.00;1.00;;;;;19.70;56.47;101146.94;5102530;27;46105;-61
2021/07/11 01:56:03;;;;;;;;;1.50;1.50;;;;;19.68;56.39;101146.19;5102527;27;45327;-59
2021/07/11 01:58:28;;;;;;;;;1.75;1.75;;;;;19.64;56.27;101145.44;5102820;27;45240;-58
2021/07/11 02:00:55;;;;;;;;;2.00;2.00;;;;;19.64;56.05;101142.78;5102404;27;45545;-59
2021/07/11 02:03:23;;;;;;;;;3.25;2.00;;;;;19.64;56.17;101140.13;5102514;27;46238;-59
2021/07/11 02:05:49;;;;;;;;;3.75;1.75;;;;;19.64;56.10;101145.44;5102282;27;45297;-59
2021/07/11 02:08:16;;;;;;;;;1.50;1.50;;;;;19.62;56.47;101142.88;5102420;27;45329;-59
2021/07/11 02:10:47;;;;;;;;;1.00;1.00;;;;;19.62;56.00;101144.66;5102281;27;45435;-60
2021/07/11 02:13:17;;;;;;;;;2.75;2.00;;;;;19.61;55.99;101151.78;5102311;27;46188;-59
2021/07/11 02:15:46;;;;;;;;;2.75;2.75;;;;;19.60;56.33;101150.06;5102210;27;45379;-61
2021/07/11 02:18:15;;;;;;;;;2.00;2.00;;;;;19.61;56.52;101145.59;5102600;27;45283;-59
2021/07/11 02:20:42;;;;;;;;;6.50;5.25;;;;;19.61;56.42;101142.94;5101839;27;45526;-59
2021/07/11 02:23:09;;;;;;;;;15.75;15.75;;;;;19.61;56.56;101143.78;5101994;27;45276;-59
2021/07/11 02:25:35;;;;;;;;;47.25;37.50;;;;;19.61;56.15;101132.28;5102191;27;45300;-59
2021/07/11 02:28:02;;;;;;;;;10.00;9.25;;;;;19.62;56.18;101134.88;5101230;27;45414;-60
2021/07/11 02:30:39;;;;;;;;;6.50;6.50;;;;;19.62;56.43;101134.88;5102314;27;45448;-59
2021/07/11 02:33:11;;;;;;;;;1.00;1.00;;;;;19.61;56.07;101137.59;5101814;27;46470;-59
2021/07/11 02:35:40;;;;;;;;;2.50;2.00;;;;;19.65;56.00;101141.84;5102212;27;45317;-59
2021/07/11 02:38:06;;;;;;;;;2.00;2.00;;;;;19.66;56.54;101143.59;5083554;27;45425;-59
2021/07/11 02:40:33;;;;;;;;;5.50;4.50;;;;;19.64;55.94;101143.63;5101882;27;45295;-60
2021/07/11 02:43:01;;;;;;;;;3.25;3.00;;;;;19.66;56.39;101143.59;5101581;27;45333;-60
2021/07/11 02:45:27;;;;;;;;;2.25;2.25;;;;;19.67;56.50;101149.78;5084245;27;45354;-59
2021/07/11 02:47:53;;;;;;;;;5.50;3.75;;;;;19.66;56.61;101151.59;5101810;27;45312;-59
2021/07/11 02:50:19;;;;;;;;;3.00;3.00;;;;;19.62;56.61;101155.31;5101823;27;45306;-59
2021/07/11 02:52:44;;;;;;;;;2.50;2.50;;;;;19.64;56.58;101159.63;5083013;27;47169;-60
2021/07/11 02:55:16;;;;;;;;;3.00;3.00;;;;;19.62;56.54;101161.53;5083426;27;45390;-60
2021/07/11 02:57:47;;;;;;;;;4.50;4.50;;;;;19.62;56.54;101163.31;5079937;28;45262;-59
2021/07/11 03:00:12;;;;;;;;;3.00;2.75;;;;;19.62;56.80;101168.63;5092832;27;45400;-59
2021/07/11 03:02:40;;;;;;;;;2.00;2.00;;;;;19.61;56.81;101159.78;5079522;28;47183;-60
2021/07/11 03:05:08;;;;;;;;;3.25;2.25;;;;;19.60;56.70;101154.53;5093184;27;45238;-60
2021/07/11 03:07:33;;;;;;;;;3.00;3.00;;;;;19.61;57.24;101154.47;5101426;27;45354;-60
2021/07/11 03:09:59;;;;;;;;;1.50;1.50;;;;;19.62;56.96;101148.19;5101410;27;45419;-59
2021/07/11 03:12:26;;;;;;;;;2.50;2.50;;;;;19.61;56.65;101157.13;5101228;27;45379;-59
2021/07/11 03:14:51;;;;;;;;;2.75;2.75;;;;;19.62;56.47;101158.84;5101392;27;45423;-59
2021/07/11 03:17:23;;;;;;;;;2.50;2.50;;;;;19.63;56.85;101157.03;5079668;28;45374;-60
2021/07/11 03:19:53;;;;;;;;;2.50;2.50;;;;;19.63;57.05;101154.38;5072219;28;45383;-59
2021/07/11 03:22:24;;;;;;;;;5.00;3.25;;;;;19.63;56.86;101149.94;5100648;27;46294;-59
2021/07/11 03:24:53;;;;;;;;;2.00;2.00;;;;;19.66;56.58;101159.59;5101120;27;45454;-59
2021/07/11 03:27:19;;;;;;;;;5.00;3.75;;;;;19.66;57.09;101154.25;5101222;27;45460;-59
2021/07/11 03:30:02;;;;;;;;;2.50;2.00;;;;;19.68;56.95;101160.38;5101086;27;45336;-59
2021/07/11 03:32:52;;;;;;;;;4.50;3.00;;;;;19.70;57.23;101168.28;5101151;27;45370;-60
2021/07/11 03:35:23;;;;;;;;;3.75;2.00;;;;;19.71;57.20;101167.34;5101363;27;45302;-59
2021/07/11 03:37:53;;;;;;;;;3.00;3.00;;;;;19.72;57.32;101164.63;5100728;27;45211;-59
2021/07/11 03:40:24;;;;;;;;;3.50;2.75;;;;;19.74;57.27;101165.41;5100891;27;45280;-59
2021/07/11 03:42:52;;;;;;;;;4.00;3.75;;;;;19.75;56.86;101168.97;5100528;27;46507;-60
2021/07/11 03:45:19;;;;;;;;;4.75;3.25;;;;;19.76;56.89;101178.66;5100902;27;45270;-60
2021/07/11 03:47:52;;;;;;;;;4.00;4.00;;;;;19.77;56.94;101188.41;5100945;27;45374;-60
2021/07/11 03:50:20;;;;;;;;;5.75;3.75;;;;;19.77;56.90;101191.06;5100919;27;45331;-60
2021/07/11 03:52:50;;;;;;;;;5.75;3.50;;;;;19.71;57.59;101196.69;5100467;27;46390;-61
2021/07/11 03:55:17;;;;;;;;;4.00;4.00;;;;;19.69;57.05;101195.91;5100789;27;45233;-62
2021/07/11 03:57:46;;;;;;;;;4.25;3.50;;;;;19.65;57.79;101193.34;5100917;27;45378;-61
2021/07/11 04:00:14;;;;;;;;;3.00;3.00;;;;;19.64;57.73;101198.78;5100707;27;45496;-62
2021/07/11 04:02:41;;;;;;;;;2.00;2.00;;;;;19.62;57.57;101192.63;5100473;27;45293;-60
2021/07/11 04:05:07;;;;;;;;;4.00;3.00;;;;;19.63;57.18;101195.25;5100715;27;45234;-59
2021/07/11 04:07:35;;;;;;;;;4.00;2.75;;;;;19.61;57.67;101198.91;5100474;27;45318;-61
2021/07/11 04:10:01;;;;;;;;;4.00;3.00;;;;;19.55;57.80;101197.38;5100489;27;45509;-59
2021/07/11 04:12:26;;;;;;;;;4.25;4.25;;;;;19.46;57.98;101189.81;5078531;28;46539;-59
2021/07/11 04:14:52;;;;;;;;;4.00;3.50;;;;;19.43;58.41;101187.25;5092899;27;45295;-59
2021/07/11 04:17:21;;;;;;;;;2.75;2.75;;;;;19.44;58.09;101189.84;5079091;28;45326;-59
2021/07/11 04:19:49;;;;;;;;;4.75;4.75;;;;;19.40;58.18;101190.94;5093440;27;45428;-59
2021/07/11 04:22:16;;;;;;;;;4.25;4.25;;;;;19.39;57.73;101199.84;5100116;27;45410;-59
2021/07/11 04:24:43;;;;;;;;;3.00;3.00;;;;;19.33;58.27;101193.00;5100336;27;45322;-62
2021/07/11 04:27:11;;;;;;;;;5.00;4.75;;;;;19.33;58.11;101194.78;5100435;27;45236;-59
2021/07/11 04:29:36;;;;;;;;;4.75;3.25;;;;;19.32;58.21;101199.25;5100176;27;45440;-59
2021/07/11 04:32:03;;;;;;;;;4.50;4.50;;;;;19.28;57.88;101199.44;5100340;27;46089;-62
2021/07/11 04:34:31;;;;;;;;;7.25;5.00;;;;;19.29;58.14;101195.84;5079683;27;45382;-62
2021/07/11 04:36:58;;;;;;;;;5.50;5.00;;;;;19.27;58.27;101201.25;5100531;27;45324;-62
2021/07/11 04:39:24;;;;;;;;;8.25;6.25;;;;;19.24;58.13;101193.38;5100005;27;45524;-59
2021/07/11 04:41:49;;;;;;;;;4.50;4.00;;;;;19.26;57.92;101201.34;5099961;27;45336;-59
2021/07/11 04:44:16;;;;;;;;;3.75;3.75;;;;;19.23;58.27;101198.78;5100026;27;45229;-59
2021/07/11 04:46:42;;;;;;;;;5.50;5.50;;;;;19.26;58.20;101202.19;5100229;27;45415;-59
2021/07/11 04:49:07;;;;;;;;;6.75;5.75;;;;;19.25;58.15;101211.09;5100040;27;45648;-59
2021/07/11 04:51:33;;;;;;;;;6.00;6.00;;;;;19.23;58.35;101201.44;5084854;27;47069;-61
2021/07/11 04:53:59;;;;;;;;;7.75;6.75;;;;;19.26;58.47;101210.19;5103556;27;45338;-59
2021/07/11 04:56:25;;;;;;;;;6.75;6.00;;;;;19.26;58.41;101212.00;5103822;27;45314;-59
2021/07/11 04:58:50;;;;;;;;;7.75;6.00;;;;;19.24;58.36;101216.50;5103538;27;45387;-60
2021/07/11 05:01:16;;;;;;;;;5.75;4.00;;;;;19.21;59.03;101211.34;5103430;27;45408;-60
2021/07/11 05:03:41;;;;;;;;;12.50;11.25;;;;;19.23;58.55;101213.00;5103493;27;45330;-60
2021/07/11 05:06:07;;;;;;;;;5.75;5.75;;;;;19.21;58.67;101209.53;5103647;27;45284;-60
2021/07/11 05:08:32;;;;;;;;;5.75;4.00;;;;;19.20;58.42;101218.44;5103322;27;45474;-59
2021/07/11 05:10:57;;;;;;;;;6.25;5.00;;;;;19.19;58.27;101206.03;5103299;27;45316;-59
2021/07/11 05:13:23;;;;;;;;;21.00;20.00;;;;;19.20;58.70;101212.25;5103288;27;45279;-59
2021/07/11 05:15:48;;;;;;;;;7.25;5.00;;;;;19.21;58.69;101214.00;5103465;27;45279;-59
2021/07/11 05:18:13;;;;;;;;;12.75;11.00;;;;;19.21;58.59;101206.84;5103299;27;45520;-59
2021/07/11 05:20:39;;;;;;;;;10.00;10.00;;;;;19.23;58.63;101220.09;5102910;27;45322;-59
2021/07/11 05:23:04;;;;;;;;;6.25;6.25;;;;;19.22;58.83;101210.38;5103175;27;45260;-59
2021/07/11 05:25:33;;;;;;;;;4.50;4.50;;;;;19.22;58.52;101213.91;5103295;27;45197;-59
2021/07/11 05:28:03;;;;;;;;;4.25;4.00;;;;;19.24;58.55;101213.84;5103034;27;45469;-60
2021/07/11 05:30:29;;;;;;;;;11.75;11.75;;;;;19.25;58.92;101220.91;5080963;28;47713;-59
2021/07/11 05:32:54;;;;;;;;;6.50;6.25;;;;;19.23;58.51;101222.78;5095714;27;45225;-58
2021/07/11 05:35:20;;;;;;;;;5.75;5.50;;;;;19.22;58.79;101226.34;5091714;27;45768;-62
2021/07/11 05:37:46;;;;;;;;;7.25;7.25;;;;;19.17;59.14;101222.09;5085672;27;45419;-61
2021/07/11 05:40:15;;;;;;;;;6.25;5.75;;;;;19.17;58.96;101224.75;5088676;27;45917;-61
2021/07/11 05:42:41;;;;;;;;;6.00;6.00;;;;;19.21;59.23;101229.97;5089436;27;45481;-60
2021/07/11 05:45:06;;;;;;;;;5.25;5.25;;;;;19.17;59.20;101235.41;5087839;27;45491;-61
2021/07/11 05:47:32;;;;;;;;;6.25;4.50;;;;;19.15;59.00;101239.09;5096982;27;45442;-60
2021/07/11 05:49:57;;;;;;;;;7.00;7.00;;;;;19.14;58.94;101237.34;5094942;27;45521;-60
2021/07/11 05:52:22;;;;;;;;;7.00;7.00;;;;;19.17;59.21;101234.56;5091734;27;45377;-60
2021/07/11 05:54:49;;;;;;;;;7.75;6.50;;;;;19.18;59.31;101228.28;5086113;27;45370;-60
2021/07/11 05:57:14;;;;;;;;;6.50;6.50;;;;;19.15;58.99;101234.59;5092287;27;45293;-60
2021/07/11 05:59:40;;;;;;;;;10.50;10.50;;;;;19.17;59.20;101230.09;5064543;28;48453;-60
2021/07/11 06:02:05;;;;;;;;;5.00;5.00;;;;;19.16;59.34;101230.16;5091028;27;45593;-60
2021/07/11 06:04:30;;;;;;;;;8.00;6.00;;;;;19.11;59.05;101230.34;5090401;27;45283;-62
2021/07/11 06:06:56;;;;;;;;;8.25;7.00;;;;;19.14;59.37;101229.34;5088401;27;45237;-64
2021/07/11 06:09:21;;;;;;;;;4.75;4.75;;;;;19.13;59.33;101239.16;5093281;27;45611;-62
2021/07/11 06:11:46;;;;;;;;;5.00;4.75;;;;;19.14;59.34;101240.00;5091071;27;45224;-63
2021/07/11 06:14:14;;;;;;;;;7.50;6.50;;;;;19.13;59.23;101239.16;5091221;27;45395;-62
2021/07/11 06:16:39;;;;;;;;;6.50;6.00;;;;;19.08;59.34;101230.50;5095430;27;45365;-61
2021/07/11 06:19:05;;;;;;;;;5.00;5.00;;;;;19.13;59.30;101247.16;5090994;27;45377;-62
2021/07/11 06:21:30;;;;;;;;;5.00;5.00;;;;;19.09;59.29;101245.50;5095108;27;45421;-63
2021/07/11 06:23:55;;;;;;;;;6.75;5.75;;;;;19.05;59.14;101257.25;5089775;27;45848;-62
2021/07/11 06:26:21;;;;;;;;;5.00;5.00;;;;;19.06;59.30;101253.66;5086845;27;45477;-62
2021/07/11 06:28:46;;;;;;;;;5.00;4.75;;;;;19.05;59.64;101241.25;5087142;27;45380;-61
2021/07/11 06:31:11;;;;;;;;;3.00;3.00;;;;;19.05;59.13;101246.59;5101882;27;45386;-60
2021/07/11 06:33:37;;;;;;;;;5.00;5.00;;;;;19.02;59.47;101245.84;5101098;27;45678;-60
2021/07/11 06:36:02;;;;;;;;;6.00;6.00;;;;;19.00;59.58;101241.47;5098697;27;45390;-60
2021/07/11 06:38:28;;;;;;;;;9.00;6.75;;;;;19.02;59.37;101246.72;5096388;27;46221;-61
2021/07/11 06:40:53;;;;;;;;;5.50;5.50;;;;;19.06;59.36;101243.00;5095960;27;45252;-61
2021/07/11 06:43:18;;;;;;;;;7.00;6.00;;;;;19.04;59.40;101233.34;5102138;27;45190;-61
2021/07/11 06:45:44;;;;;;;;;8.00;6.50;;;;;19.07;59.10;101235.84;5099346;27;45397;-60
2021/07/11 06:48:09;;;;;;;;;6.50;6.00;;;;;19.10;59.08;101249.91;5092983;27;45646;-60
2021/07/11 06:50:36;;;;;;;;;5.00;4.50;;;;;19.13;59.13;101240.94;5098701;27;45300;-60
2021/07/11 06:53:02;;;;;;;;;6.25;6.25;;;;;19.14;59.70;101245.34;5101910;27;45527;-61
2021/07/11 06:55:27;;;;;;;;;8.00;6.00;;;;;19.13;59.09;101230.28;5101611;27;45159;-61
2021/07/11 06:57:53;;;;;;;;;6.25;5.00;;;;;19.19;59.27;101237.16;5101545;27;45716;-61
2021/07/11 07:00:18;;;;;;;;;5.00;4.00;;;;;19.22;58.81;101229.91;5101522;27;45591;-62
2021/07/11 07:02:44;;;;;;;;;5.25;5.25;;;;;19.25;59.02;101227.09;5100417;27;45417;-59
2021/07/11 07:05:10;;;;;;;;;3.75;3.50;;;;;19.25;58.95;101227.09;5101599;27;45346;-60
2021/07/11 07:07:36;;;;;;;;;3.25;3.25;;;;;19.31;58.92;101237.50;5101221;27;46047;-60
2021/07/11 07:10:04;;;;;;;;;4.25;4.00;;;;;19.36;58.89;101233.75;5101301;27;45273;-59
2021/07/11 07:12:30;;;;;;;;;7.00;5.50;;;;;19.36;59.07;101231.97;5100933;27;45275;-59
2021/07/11 07:14:55;;;;;;;;;5.00;5.00;;;;;19.39;59.09;101237.16;5082859;27;45187;-60
2021/07/11 07:17:21;;;;;;;;;4.75;4.00;;;;;19.41;58.88;101239.78;5101366;27;46364;-59
2021/07/11 07:19:46;;;;;;;;;4.00;4.00;;;;;19.40;58.96;101233.56;5101151;27;45310;-60
2021/07/11 07:22:11;;;;;;;;;4.75;4.25;;;;;19.42;58.84;101231.72;5101225;27;45364;-60
2021/07/11 07:24:37;;;;;;;;;6.00;6.00;;;;;19.44;58.41;101236.97;5101123;27;45602;-61
2021/07/11 07:27:03;;;;;;;;;6.75;5.50;;;;;19.49;58.96;101243.81;5101168;27;46283;-60
2021/07/11 07:29:28;;;;;;;;;4.75;4.75;;;;;19.54;58.63;101240.09;5082797;27;45353;-60
2021/07/11 07:31:54;;;;;;;;;5.00;5.00;;;;;19.59;58.47;101238.09;5101244;27;45364;-60
2021/07/11 07:34:19;;;;;;;;;4.75;4.00;;;;;19.66;58.53;101242.22;5101100;27;45371;-60
2021/07/11 07:36:45;;;;;;;;;4.00;4.00;;;;;19.70;58.87;101237.59;5101183;27;45304;-60
2021/07/11 07:39:10;;;;;;;;;3.00;3.00;;;;;19.71;58.79;101250.88;5100750;27;45296;-61
2021/07/11 07:41:36;;;;;;;;;4.00;4.00;;;;;19.74;58.87;101247.22;5101267;27;45445;-61
2021/07/11 07:44:04;;;;;;;;;5.50;3.75;;;;;19.76;58.78;101250.66;5082439;27;45661;-61
2021/07/11 07:46:29;;;;;;;;;5.00;4.00;;;;;19.78;58.83;101246.13;5100794;27;45312;-60
2021/07/11 07:48:54;;;;;;;;;4.00;4.00;;;;;19.79;58.35;101245.19;5082372;27;45267;-60
2021/07/11 07:51:20;;;;;;;;;7.75;7.00;;;;;19.80;58.33;101245.13;5101181;27;45200;-60
2021/07/11 07:53:45;;;;;;;;;5.00;3.25;;;;;19.84;58.76;101255.72;5100524;27;45459;-59
2021/07/11 07:56:10;;;;;;;;;5.50;4.25;;;;;19.86;58.67;101248.47;5100921;27;45230;-61
2021/07/11 07:58:36;;;;;;;;;4.00;4.00;;;;;19.87;58.73;101255.56;5100668;27;45216;-60
2021/07/11 08:01:01;;;;;;;;;9.25;8.00;;;;;19.89;58.58;101256.38;5079016;28;45203;-59
2021/07/11 08:03:26;;;;;;;;;79.75;67.25;;;;;19.90;58.16;101244.72;5094082;27;45236;-61
2021/07/11 08:05:52;;;;;;;;;43.25;37.50;;;;;19.90;58.44;101245.63;5100611;27;45917;-59
2021/07/11 08:08:17;;;;;;;;;16.75;11.25;;;;;19.91;58.52;101241.13;5100525;27;45169;-59
2021/07/11 08:10:42;;;;;;;;;83.00;76.67;;;;;19.95;58.15;101248.09;5100539;27;45203;-59
2021/07/11 08:13:08;;;;;;;;;65.75;53.50;;;;;19.95;58.67;101250.75;5100410;27;45534;-60
2021/07/11 08:15:33;;;;;;;;;6.25;6.25;;;;;19.96;58.58;101249.78;5100629;27;45295;-59
2021/07/11 08:17:59;;;;;;;;;8.25;7.00;;;;;19.97;58.09;101247.06;5100517;27;45573;-60
2021/07/11 08:20:25;;;;;;;;;9.00;9.00;;;;;19.99;58.56;101244.34;5100291;27;45518;-60
2021/07/11 08:22:50;;;;;;;;;7.25;7.25;;;;;20.00;58.70;101243.41;5081801;27;45372;-60
2021/07/11 08:25:16;;;;;;;;;10.50;9.00;;;;;20.00;58.21;101248.75;5079800;28;46291;-59
2021/07/11 08:27:43;;;;;;;;;8.00;8.00;;;;;20.00;58.62;101248.75;5097147;27;45357;-60
2021/07/11 08:30:11;;;;;;;;;9.00;6.50;;;;;19.98;58.65;101243.44;5104233;27;45305;-60
2021/07/11 08:32:37;;;;;;;;;6.75;6.50;;;;;20.03;58.74;101248.59;5103830;27;45436;-59
2021/07/11 08:35:04;;;;;;;;;7.75;7.75;;;;;20.04;58.10;101239.66;5085692;27;47159;-59
2021/07/11 08:37:29;;;;;;;;;9.25;9.25;;;;;20.04;58.47;101231.66;5103494;27;45345;-59
2021/07/11 08:39:55;;;;;;;;;8.50;8.50;;;;;20.12;58.40;101231.28;5103948;27;45823;-59
2021/07/11 08:42:23;;;;;;;;;7.25;7.25;;;;;20.16;58.44;101222.19;5103579;27;45274;-60
2021/07/11 08:44:48;;;;;;;;;8.75;7.25;;;;;20.21;58.33;101222.00;5103924;27;47161;-59
2021/07/11 08:47:13;;;;;;;;;10.50;9.00;;;;;20.27;58.07;101222.56;5082680;27;45216;-59
2021/07/11 08:49:39;;;;;;;;;8.50;8.00;;;;;20.33;58.47;101226.75;5104040;27;45244;-59
2021/07/11 08:52:05;;;;;;;;;8.00;7.75;;;;;20.36;58.79;101226.59;5103421;27;45295;-59
2021/07/11 08:54:31;;;;;;;;;9.00;8.75;;;;;20.39;58.13;101228.25;5103696;27;46212;-59
2021/07/11 08:57:02;;;;;;;;;8.75;7.75;;;;;20.44;58.28;101229.78;5085007;27;45763;-60
2021/07/11 08:59:29;;;;;;;;;8.50;8.00;;;;;20.52;58.46;101236.56;5082078;28;45444;-59
2021/07/11 09:01:56;;;;;;;;;7.50;7.25;;;;;20.56;58.36;101230.97;5097830;27;45190;-59
2021/07/11 09:04:21;;;;;;;;;23.25;21.50;;;;;20.59;58.34;101233.50;5103554;27;45281;-59
2021/07/11 09:06:49;;;;;;;;;14.00;12.25;;;;;20.63;58.00;101235.06;5103231;27;45244;-59
2021/07/11 09:09:29;;;;;;;;;8.25;8.25;;;;;20.70;57.58;101227.63;5102380;27;45325;-59
2021/07/11 09:12:01;;;;;;;;;5.75;5.75;;;;;20.73;57.84;101227.53;5103033;27;45589;-59
2021/07/11 09:14:29;;;;;;;;;6.00;6.00;;;;;20.76;57.95;101237.19;5103272;27;46065;-59
2021/07/11 09:16:57;;;;;;;;;6.00;6.00;;;;;20.84;58.06;101232.34;5103137;27;45351;-60
2021/07/11 09:19:24;;;;;;;;;5.75;4.00;;;;;20.87;57.51;101234.84;5102916;27;45217;-60
2021/07/11 09:21:59;;;;;;;;;8.25;8.00;;;;;20.92;57.63;101237.31;5101794;27;45281;-60
2021/07/11 09:24:25;;;;;;;;;5.00;5.00;;;;;20.98;57.80;101233.44;5102130;27;46177;-60
2021/07/11 09:26:53;;;;;;;;;4.50;4.50;;;;;21.02;57.46;101237.69;5101753;27;45296;-60
2021/07/11 09:29:30;;;;;;;;;6.00;5.00;;;;;21.09;57.21;101233.75;5102289;27;45357;-60
2021/07/11 09:31:56;;;;;;;;;5.25;5.25;;;;;21.13;57.54;101234.47;5083797;27;45527;-59
2021/07/11 09:34:24;;;;;;;;;4.00;4.00;;;;;21.17;57.37;101233.38;5101744;27;46070;-60
2021/07/11 09:37:16;;;;;;;;;5.00;5.00;;;;;21.17;57.06;101231.59;5101139;27;45484;-60
2021/07/11 09:39:52;;;;;;;;;5.00;5.00;;;;;21.23;57.60;101227.72;5101676;27;45383;-60
2021/07/11 09:42:38;;;;;;;;;7.00;7.00;;;;;21.25;57.49;101223.16;5101767;27;45341;-60
2021/07/11 09:45:14;;;;;;;;;6.25;5.25;;;;;21.29;56.87;101235.41;5101628;27;46308;-60
2021/07/11 09:47:39;;;;;;;;;6.25;6.25;;;;;21.31;57.68;101229.97;5101722;27;45446;-60
2021/07/11 09:50:14;;;;;;;;;5.75;5.00;;;;;21.36;56.84;101230.63;5101816;27;45413;-59
2021/07/11 09:52:44;;;;;;;;;8.75;8.25;;;;;21.42;57.42;101238.31;5101319;27;45518;-60
2021/07/11 09:55:31;;;;;;;;;4.00;4.00;;;;;21.47;56.73;101233.63;5101400;27;46203;-60
2021/07/11 09:57:59;;;;;;;;;7.00;7.00;;;;;21.53;56.90;101229.75;5101283;27;45245;-61
2021/07/11 10:00:31;;;;;;;;;7.75;7.75;;;;;21.61;56.86;101227.56;5101363;27;45344;-60
2021/07/11 10:03:04;;;;;;;;;8.50;8.00;;;;;21.66;57.20;101216.63;5101435;27;45375;-60
2021/07/11 10:05:31;;;;;;;;;4.00;4.00;;;;;21.69;56.88;101209.28;5101201;27;46207;-60
2021/07/11 10:07:57;;;;;;;;;5.00;5.00;;;;;21.80;56.91;101230.13;5101077;27;45296;-61
2021/07/11 10:10:25;;;;;;;;;4.00;4.00;;;;;21.85;56.70;101225.38;5101162;27;45227;-61
2021/07/11 10:12:51;;;;;;;;;7.75;5.25;;;;;21.88;56.61;101222.53;5101024;27;45548;-61
2021/07/11 10:15:19;;;;;;;;;3.50;3.50;;;;;22.01;56.71;101206.69;5101008;27;46527;-60
2021/07/11 10:17:51;;;;;;;;;7.00;7.00;;;;;22.07;56.82;101208.16;5082719;27;45821;-61
2021/07/11 10:20:19;;;;;;;;;6.00;6.00;;;;;22.14;56.67;101216.69;5062064;27;1117425;-61
2021/07/11 10:22:50;;;;;;;;;6.50;6.50;;;;;22.25;56.37;101211.63;5102088;27;45399;-60
2021/07/11 10:25:21;;;;;;;;;11.25;8.25;;;;;22.35;56.77;101214.63;5102237;27;45911;-60
2021/07/11 10:27:48;;;;;;;;;5.75;5.75;;;;;22.42;56.39;101207.19;5101881;27;45175;-60
2021/07/11 10:30:15;;;;;;;;;6.00;5.00;;;;;22.50;56.09;101207.59;5102212;27;45414;-60
2021/07/11 10:32:41;;;;;;;;;6.00;5.50;;;;;22.60;55.92;101206.09;5101913;27;45379;-60
2021/07/11 10:35:09;;;;;;;;;6.00;5.00;;;;;22.62;55.63;101198.84;5102253;27;45268;-60
2021/07/11 10:37:43;;;;;;;;;7.25;5.00;;;;;22.71;55.71;101197.44;5101423;27;45172;-60
2021/07/11 10:40:12;;;;;;;;;6.25;5.50;;;;;22.79;55.51;101208.59;5102039;27;45232;-60
2021/07/11 10:42:37;;;;;;;;;5.00;5.00;;;;;22.85;55.31;101200.19;5101599;27;45239;-60
2021/07/11 10:45:09;;;;;;;;;5.00;5.00;;;;;22.88;55.58;101197.34;5102137;27;45768;-60
2021/07/11 10:47:34;;;;;;;;;5.75;5.75;;;;;23.00;55.21;101203.75;5100849;27;45169;-60
2021/07/11 10:50:00;;;;;;;;;5.50;5.50;;;;;23.09;55.21;101202.34;5102189;27;45321;-60
2021/07/11 10:52:27;;;;;;;;;6.25;5.25;;;;;23.23;55.17;101198.03;5083259;27;45233;-59
2021/07/11 10:54:59;;;;;;;;;4.75;4.75;;;;;23.39;55.71;101198.81;5101776;27;46464;-59
2021/07/11 10:57:31;;;;;;;;;5.00;5.00;;;;;23.65;55.49;101193.69;5083172;27;45258;-62
2021/07/11 11:00:16;;;;;;;;;5.00;4.00;;;;;23.95;55.65;101196.28;5101697;27;45418;-60
2021/07/11 11:02:45;;;;;;;;;5.00;4.00;;;;;24.30;55.85;101190.47;5101560;27;45535;-61
2021/07/11 11:05:23;;;;;;;;;4.75;4.75;;;;;24.69;56.19;101189.78;5101506;27;47043;-61
2021/07/11 11:07:56;;;;;;;;;5.75;5.75;;;;;25.05;55.80;101186.41;5101292;27;45475;-60
2021/07/11 11:10:24;;;;;;;;;4.75;4.25;;;;;25.38;55.84;101192.28;5101439;27;45262;-60
2021/07/11 11:13:10;;;;;;;;;4.00;4.00;;;;;25.64;55.21;101183.25;5101245;27;45551;-60
2021/07/11 11:15:50;;;;;;;;;4.25;4.25;;;;;25.93;55.15;101188.38;5101398;27;46168;-60
2021/07/11 11:18:17;;;;;;;;;5.75;4.50;;;;;26.18;54.55;101191.16;5101303;27;45263;-61
2021/07/11 11:20:47;;;;;;;;;8.00;8.00;;;;;26.44;54.80;101181.16;5100891;27;45314;-59
2021/07/11 11:23:12;;;;;;;;;4.50;4.50;;;;;26.70;54.39;101194.50;5100632;27;45395;-60
2021/07/11 11:25:42;;;;;;;;;4.00;4.00;;;;;26.93;53.73;101188.25;5079127;28;46211;-60